Wilkinson, Minnesota
Current Conditions -  °F | °C
As of 8:15 PM on Sunday 25 Jan 2015 (Local Time) from KY49 Reporting Station
Scattered Clouds Scattered Clouds  
Wind Chill: 17°   Ceiling: Unl
Heat Index: 24°   Visibility: 10mi
Dew Point: 16°   Wind: 6mph
Humidity: 71%   Direction: 200°SSW
Pressure: 29.91"   Gusts: NA
Location:  47.3012°N, 94.5426°W
Report Text: KY49 260215Z AUTO 20005KT 10SM SCT120 M04/M09 A2991 RMK AO2 T10421087
Loading
Personal Weather Stations






























Interactive Weather Map New forecast layout! Learn more

10-Day Weather Forecast

Advertisements
Track Severe Weather on mobile